sensor_id;sensor_type;location;lat;lon;timestamp;temperature;humidity
63537;DHT22;49686;51.880;5.632;2023-01-30T00:00:58;2.80;99.90
63537;DHT22;49686;51.880;5.632;2023-01-30T00:03:27;2.80;99.90
63537;DHT22;49686;51.880;5.632;2023-01-30T00:05:54;2.80;99.90
63537;DHT22;49686;51.880;5.632;2023-01-30T00:08:21;2.80;99.90
63537;DHT22;49686;51.880;5.632;2023-01-30T00:10:47;2.80;99.90
63537;DHT22;49686;51.880;5.632;2023-01-30T00:13:14;2.80;99.90
63537;DHT22;49686;51.880;5.632;2023-01-30T00:15:41;2.80;99.90
63537;DHT22;49686;51.880;5.632;2023-01-30T00:18:08;2.80;99.90
63537;DHT22;49686;51.880;5.632;2023-01-30T00:20:37;2.90;99.90
63537;DHT22;49686;51.880;5.632;2023-01-30T00:23:04;2.90;99.90
63537;DHT22;49686;51.880;5.632;2023-01-30T00:25:31;2.90;99.90
63537;DHT22;49686;51.880;5.632;2023-01-30T00:27:59;3.00;99.90
63537;DHT22;49686;51.880;5.632;2023-01-30T00:30:26;3.00;99.90
63537;DHT22;49686;51.880;5.632;2023-01-30T00:32:54;3.10;99.90
63537;DHT22;49686;51.880;5.632;2023-01-30T00:35:21;3.00;99.90
63537;DHT22;49686;51.880;5.632;2023-01-30T00:37:49;3.10;99.90
63537;DHT22;49686;51.880;5.632;2023-01-30T00:40:16;3.10;99.90
63537;DHT22;49686;51.880;5.632;2023-01-30T00:42:43;3.20;99.90
63537;DHT22;49686;51.880;5.632;2023-01-30T00:45:11;3.20;99.90
63537;DHT22;49686;51.880;5.632;2023-01-30T00:47:38;3.20;99.90
63537;DHT22;49686;51.880;5.632;2023-01-30T00:50:05;3.20;99.90
63537;DHT22;49686;51.880;5.632;2023-01-30T00:52:32;3.30;99.90
63537;DHT22;49686;51.880;5.632;2023-01-30T00:55:00;3.30;99.90
63537;DHT22;49686;51.880;5.632;2023-01-30T00:57:27;3.30;99.90
63537;DHT22;49686;51.880;5.632;2023-01-30T00:59:54;3.30;99.90
63537;DHT22;49686;51.880;5.632;2023-01-30T01:02:21;3.40;99.90
63537;DHT22;49686;51.880;5.632;2023-01-30T01:04:48;3.40;99.90
63537;DHT22;49686;51.880;5.632;2023-01-30T01:07:15;3.40;99.90
63537;DHT22;49686;51.880;5.632;2023-01-30T01:09:41;3.40;99.90
63537;DHT22;49686;51.880;5.632;2023-01-30T01:12:09;3.40;99.90
63537;DHT22;49686;51.880;5.632;2023-01-30T01:14:36;3.40;99.90
63537;DHT22;49686;51.880;5.632;2023-01-30T01:17:03;3.40;99.90
63537;DHT22;49686;51.880;5.632;2023-01-30T01:19:30;3.40;99.90
63537;DHT22;49686;51.880;5.632;2023-01-30T01:21:57;3.40;99.90
63537;DHT22;49686;51.880;5.632;2023-01-30T01:24:24;3.40;99.90
63537;DHT22;49686;51.880;5.632;2023-01-30T01:26:51;3.50;99.90
63537;DHT22;49686;51.880;5.632;2023-01-30T01:29:19;3.50;99.90
63537;DHT22;49686;51.880;5.632;2023-01-30T01:31:45;3.50;99.90
63537;DHT22;49686;51.880;5.632;2023-01-30T01:34:12;3.50;99.90
63537;DHT22;49686;51.880;5.632;2023-01-30T01:36:39;3.50;99.90
63537;DHT22;49686;51.880;5.632;2023-01-30T01:39:22;3.50;99.90
63537;DHT22;49686;51.880;5.632;2023-01-30T01:41:49;3.50;99.90
63537;DHT22;49686;51.880;5.632;2023-01-30T01:44:16;3.50;99.90
63537;DHT22;49686;51.880;5.632;2023-01-30T01:46:48;3.50;99.90
63537;DHT22;49686;51.880;5.632;2023-01-30T01:49:19;3.60;99.90
63537;DHT22;49686;51.880;5.632;2023-01-30T01:51:50;3.50;99.90
63537;DHT22;49686;51.880;5.632;2023-01-30T01:54:22;3.60;99.90
63537;DHT22;49686;51.880;5.632;2023-01-30T01:56:50;3.60;99.90
63537;DHT22;49686;51.880;5.632;2023-01-30T01:59:21;3.60;99.90
63537;DHT22;49686;51.880;5.632;2023-01-30T02:01:53;3.70;99.90
63537;DHT22;49686;51.880;5.632;2023-01-30T02:04:21;3.70;99.90
63537;DHT22;49686;51.880;5.632;2023-01-30T02:06:48;3.70;99.90
63537;DHT22;49686;51.880;5.632;2023-01-30T02:09:14;3.70;99.90
63537;DHT22;49686;51.880;5.632;2023-01-30T02:11:46;3.90;99.90
63537;DHT22;49686;51.880;5.632;2023-01-30T02:14:15;4.00;99.90
63537;DHT22;49686;51.880;5.632;2023-01-30T02:16:43;4.10;99.90
63537;DHT22;49686;51.880;5.632;2023-01-30T02:19:15;4.20;99.90
63537;DHT22;49686;51.880;5.632;2023-01-30T02:22:10;4.40;99.90
63537;DHT22;49686;51.880;5.632;2023-01-30T02:25:10;4.50;99.90
63537;DHT22;49686;51.880;5.632;2023-01-30T02:28:04;4.60;99.90
63537;DHT22;49686;51.880;5.632;2023-01-30T02:30:53;4.70;99.90
63537;DHT22;49686;51.880;5.632;2023-01-30T02:33:33;4.70;99.90
63537;DHT22;49686;51.880;5.632;2023-01-30T02:36:08;4.70;99.90
63537;DHT22;49686;51.880;5.632;2023-01-30T02:38:40;4.60;99.90
63537;DHT22;49686;51.880;5.632;2023-01-30T02:41:18;4.60;99.90
63537;DHT22;49686;51.880;5.632;2023-01-30T02:43:55;4.60;99.90
63537;DHT22;49686;51.880;5.632;2023-01-30T02:46:31;4.60;99.90
63537;DHT22;49686;51.880;5.632;2023-01-30T02:49:04;4.50;99.90
63537;DHT22;49686;51.880;5.632;2023-01-30T02:51:34;4.50;99.90
63537;DHT22;49686;51.880;5.632;2023-01-30T02:54:04;4.60;99.90
63537;DHT22;49686;51.880;5.632;2023-01-30T02:56:42;4.50;99.90
63537;DHT22;49686;51.880;5.632;2023-01-30T02:59:09;4.50;99.90
63537;DHT22;49686;51.880;5.632;2023-01-30T03:01:55;4.50;99.90
63537;DHT22;49686;51.880;5.632;2023-01-30T03:04:36;4.40;99.90
63537;DHT22;49686;51.880;5.632;2023-01-30T03:07:17;4.40;99.90
63537;DHT22;49686;51.880;5.632;2023-01-30T03:09:52;4.30;99.90
63537;DHT22;49686;51.880;5.632;2023-01-30T03:12:32;4.30;99.90
63537;DHT22;49686;51.880;5.632;2023-01-30T03:15:07;4.30;99.90
63537;DHT22;49686;51.880;5.632;2023-01-30T03:17:40;4.30;99.90
63537;DHT22;49686;51.880;5.632;2023-01-30T03:20:10;4.30;99.90
63537;DHT22;49686;51.880;5.632;2023-01-30T03:22:37;4.20;99.90
63537;DHT22;49686;51.880;5.632;2023-01-30T03:25:04;4.20;99.90
63537;DHT22;49686;51.880;5.632;2023-01-30T03:27:32;4.30;99.90
63537;DHT22;49686;51.880;5.632;2023-01-30T03:29:59;4.30;99.90
63537;DHT22;49686;51.880;5.632;2023-01-30T03:32:26;4.20;99.90
63537;DHT22;49686;51.880;5.632;2023-01-30T03:34:54;4.20;99.90
63537;DHT22;49686;51.880;5.632;2023-01-30T03:37:21;4.30;99.90
63537;DHT22;49686;51.880;5.632;2023-01-30T03:39:48;4.20;99.90
63537;DHT22;49686;51.880;5.632;2023-01-30T03:42:15;4.30;99.90
63537;DHT22;49686;51.880;5.632;2023-01-30T03:44:41;4.20;99.90
63537;DHT22;49686;51.880;5.632;2023-01-30T03:47:08;4.20;99.90
63537;DHT22;49686;51.880;5.632;2023-01-30T03:49:35;4.20;99.90
63537;DHT22;49686;51.880;5.632;2023-01-30T03:52:03;4.20;99.90
63537;DHT22;49686;51.880;5.632;2023-01-30T03:54:30;4.30;99.90
63537;DHT22;49686;51.880;5.632;2023-01-30T03:56:57;4.40;99.90
63537;DHT22;49686;51.880;5.632;2023-01-30T03:59:24;4.30;99.90
63537;DHT22;49686;51.880;5.632;2023-01-30T04:01:50;4.30;99.90
63537;DHT22;49686;51.880;5.632;2023-01-30T04:04:17;4.40;99.90
63537;DHT22;49686;51.880;5.632;2023-01-30T04:06:44;4.40;99.90
63537;DHT22;49686;51.880;5.632;2023-01-30T04:09:12;4.40;99.90
63537;DHT22;49686;51.880;5.632;2023-01-30T04:11:39;4.50;99.90
63537;DHT22;49686;51.880;5.632;2023-01-30T04:14:06;4.50;99.90
63537;DHT22;49686;51.880;5.632;2023-01-30T04:16:32;4.50;99.90
63537;DHT22;49686;51.880;5.632;2023-01-30T04:18:59;4.50;99.90
63537;DHT22;49686;51.880;5.632;2023-01-30T04:21:26;4.50;99.90
63537;DHT22;49686;51.880;5.632;2023-01-30T04:23:53;4.50;99.90
63537;DHT22;49686;51.880;5.632;2023-01-30T04:26:21;4.50;99.90
63537;DHT22;49686;51.880;5.632;2023-01-30T04:28:48;4.50;99.90
63537;DHT22;49686;51.880;5.632;2023-01-30T04:31:15;4.50;99.90
63537;DHT22;49686;51.880;5.632;2023-01-30T04:33:42;4.50;99.90
63537;DHT22;49686;51.880;5.632;2023-01-30T04:36:09;4.60;99.90
63537;DHT22;49686;51.880;5.632;2023-01-30T04:38:36;4.60;99.90
63537;DHT22;49686;51.880;5.632;2023-01-30T04:41:04;4.60;99.90
63537;DHT22;49686;51.880;5.632;2023-01-30T04:43:32;4.60;99.90
63537;DHT22;49686;51.880;5.632;2023-01-30T04:45:59;4.60;99.90
63537;DHT22;49686;51.880;5.632;2023-01-30T04:48:26;4.60;99.90
63537;DHT22;49686;51.880;5.632;2023-01-30T04:50:54;4.60;99.90
63537;DHT22;49686;51.880;5.632;2023-01-30T04:53:23;4.70;99.90
63537;DHT22;49686;51.880;5.632;2023-01-30T04:55:50;4.60;99.90
63537;DHT22;49686;51.880;5.632;2023-01-30T04:58:17;4.70;99.90
63537;DHT22;49686;51.880;5.632;2023-01-30T05:00:46;4.70;99.90
63537;DHT22;49686;51.880;5.632;2023-01-30T05:03:12;4.70;99.90
63537;DHT22;49686;51.880;5.632;2023-01-30T05:05:39;4.70;99.90
63537;DHT22;49686;51.880;5.632;2023-01-30T05:08:06;4.70;99.90
63537;DHT22;49686;51.880;5.632;2023-01-30T05:10:33;4.70;99.90
63537;DHT22;49686;51.880;5.632;2023-01-30T05:13:03;4.70;99.90
63537;DHT22;49686;51.880;5.632;2023-01-30T05:15:31;4.70;99.90
63537;DHT22;49686;51.880;5.632;2023-01-30T05:17:59;4.70;99.90
63537;DHT22;49686;51.880;5.632;2023-01-30T05:20:26;4.70;99.90
63537;DHT22;49686;51.880;5.632;2023-01-30T05:22:53;4.70;99.90
63537;DHT22;49686;51.880;5.632;2023-01-30T05:25:20;4.70;99.90
63537;DHT22;49686;51.880;5.632;2023-01-30T05:27:47;4.70;99.90
63537;DHT22;49686;51.880;5.632;2023-01-30T05:30:14;4.50;99.90
63537;DHT22;49686;51.880;5.632;2023-01-30T05:32:40;4.50;99.90
63537;DHT22;49686;51.880;5.632;2023-01-30T05:35:09;4.60;99.90
63537;DHT22;49686;51.880;5.632;2023-01-30T05:37:36;4.60;99.90
63537;DHT22;49686;51.880;5.632;2023-01-30T05:40:03;4.50;99.90
63537;DHT22;49686;51.880;5.632;2023-01-30T05:42:30;4.50;99.90
63537;DHT22;49686;51.880;5.632;2023-01-30T05:44:57;4.50;99.90
63537;DHT22;49686;51.880;5.632;2023-01-30T05:47:24;4.60;99.90
63537;DHT22;49686;51.880;5.632;2023-01-30T05:49:50;4.70;99.90
63537;DHT22;49686;51.880;5.632;2023-01-30T05:52:18;4.80;99.90
63537;DHT22;49686;51.880;5.632;2023-01-30T05:54:45;4.90;99.90
63537;DHT22;49686;51.880;5.632;2023-01-30T05:57:12;5.10;99.90
63537;DHT22;49686;51.880;5.632;2023-01-30T05:59:39;5.00;99.90
63537;DHT22;49686;51.880;5.632;2023-01-30T06:02:06;5.10;99.90
63537;DHT22;49686;51.880;5.632;2023-01-30T06:04:33;5.10;99.90
63537;DHT22;49686;51.880;5.632;2023-01-30T06:06:59;5.10;99.90
63537;DHT22;49686;51.880;5.632;2023-01-30T06:09:27;5.10;99.90
63537;DHT22;49686;51.880;5.632;2023-01-30T06:11:54;4.90;99.90
63537;DHT22;49686;51.880;5.632;2023-01-30T06:14:21;4.90;99.90
63537;DHT22;49686;51.880;5.632;2023-01-30T06:16:48;5.00;99.90
63537;DHT22;49686;51.880;5.632;2023-01-30T06:19:15;5.00;99.90
63537;DHT22;49686;51.880;5.632;2023-01-30T06:21:41;4.90;99.90
63537;DHT22;49686;51.880;5.632;2023-01-30T06:24:08;4.70;99.90
63537;DHT22;49686;51.880;5.632;2023-01-30T06:26:36;4.70;99.90
63537;DHT22;49686;51.880;5.632;2023-01-30T06:29:03;4.60;99.90
63537;DHT22;49686;51.880;5.632;2023-01-30T06:31:30;4.60;99.90
63537;DHT22;49686;51.880;5.632;2023-01-30T06:33:56;4.50;99.90
63537;DHT22;49686;51.880;5.632;2023-01-30T06:36:25;4.50;99.90
63537;DHT22;49686;51.880;5.632;2023-01-30T06:38:51;4.30;99.90
63537;DHT22;49686;51.880;5.632;2023-01-30T06:41:19;4.40;99.90
63537;DHT22;49686;51.880;5.632;2023-01-30T06:43:47;4.00;99.90
63537;DHT22;49686;51.880;5.632;2023-01-30T06:46:13;4.10;99.90
63537;DHT22;49686;51.880;5.632;2023-01-30T06:48:40;4.00;99.90
63537;DHT22;49686;51.880;5.632;2023-01-30T06:51:07;3.80;99.90
63537;DHT22;49686;51.880;5.632;2023-01-30T06:53:34;4.00;99.90
63537;DHT22;49686;51.880;5.632;2023-01-30T06:56:01;3.90;99.90
63537;DHT22;49686;51.880;5.632;2023-01-30T06:58:28;3.70;99.90
63537;DHT22;49686;51.880;5.632;2023-01-30T07:00:56;3.60;99.90
63537;DHT22;49686;51.880;5.632;2023-01-30T07:03:23;3.60;99.90
63537;DHT22;49686;51.880;5.632;2023-01-30T07:05:50;3.80;99.90
63537;DHT22;49686;51.880;5.632;2023-01-30T07:08:16;3.80;99.90
63537;DHT22;49686;51.880;5.632;2023-01-30T07:10:44;3.70;99.90
63537;DHT22;49686;51.880;5.632;2023-01-30T07:13:11;3.40;99.90
63537;DHT22;49686;51.880;5.632;2023-01-30T07:15:38;3.50;99.90
63537;DHT22;49686;51.880;5.632;2023-01-30T07:18:06;3.40;99.90
63537;DHT22;49686;51.880;5.632;2023-01-30T07:20:33;3.40;99.90
63537;DHT22;49686;51.880;5.632;2023-01-30T07:23:00;3.40;99.90
63537;DHT22;49686;51.880;5.632;2023-01-30T07:25:27;3.50;99.90
63537;DHT22;49686;51.880;5.632;2023-01-30T07:27:56;3.40;99.90
63537;DHT22;49686;51.880;5.632;2023-01-30T07:30:23;3.50;99.90
63537;DHT22;49686;51.880;5.632;2023-01-30T07:32:50;3.50;99.90
63537;DHT22;49686;51.880;5.632;2023-01-30T07:35:19;3.50;99.90
63537;DHT22;49686;51.880;5.632;2023-01-30T07:37:46;3.50;99.90
63537;DHT22;49686;51.880;5.632;2023-01-30T07:40:13;3.50;99.90
63537;DHT22;49686;51.880;5.632;2023-01-30T07:42:40;3.40;99.90
63537;DHT22;49686;51.880;5.632;2023-01-30T07:45:08;3.40;99.90
63537;DHT22;49686;51.880;5.632;2023-01-30T07:47:35;3.50;99.90
63537;DHT22;49686;51.880;5.632;2023-01-30T07:50:03;3.50;99.90
63537;DHT22;49686;51.880;5.632;2023-01-30T07:52:32;3.70;99.90
63537;DHT22;49686;51.880;5.632;2023-01-30T07:54:59;3.40;99.90
63537;DHT22;49686;51.880;5.632;2023-01-30T07:57:28;3.20;99.90
63537;DHT22;49686;51.880;5.632;2023-01-30T07:59:55;3.40;99.90
63537;DHT22;49686;51.880;5.632;2023-01-30T08:02:21;3.30;99.90
63537;DHT22;49686;51.880;5.632;2023-01-30T08:04:48;3.30;99.90
63537;DHT22;49686;51.880;5.632;2023-01-30T08:07:15;3.20;99.90
63537;DHT22;49686;51.880;5.632;2023-01-30T08:09:43;3.40;99.90
63537;DHT22;49686;51.880;5.632;2023-01-30T08:12:10;3.40;99.90
63537;DHT22;49686;51.880;5.632;2023-01-30T08:14:37;3.40;99.90
63537;DHT22;49686;51.880;5.632;2023-01-30T08:17:04;3.50;99.90
63537;DHT22;49686;51.880;5.632;2023-01-30T08:19:30;3.60;99.90
63537;DHT22;49686;51.880;5.632;2023-01-30T08:21:58;3.60;99.90
63537;DHT22;49686;51.880;5.632;2023-01-30T08:24:25;3.60;99.90
63537;DHT22;49686;51.880;5.632;2023-01-30T08:26:53;3.60;99.90
63537;DHT22;49686;51.880;5.632;2023-01-30T08:29:19;3.80;99.90
63537;DHT22;49686;51.880;5.632;2023-01-30T08:31:47;3.80;99.90
63537;DHT22;49686;51.880;5.632;2023-01-30T08:34:14;3.90;99.90
63537;DHT22;49686;51.880;5.632;2023-01-30T08:36:41;3.90;99.90
63537;DHT22;49686;51.880;5.632;2023-01-30T08:39:07;3.90;99.90
63537;DHT22;49686;51.880;5.632;2023-01-30T08:41:34;4.00;99.90
63537;DHT22;49686;51.880;5.632;2023-01-30T08:44:03;4.10;99.90
63537;DHT22;49686;51.880;5.632;2023-01-30T08:46:30;4.30;99.90
63537;DHT22;49686;51.880;5.632;2023-01-30T08:48:56;4.30;99.90
63537;DHT22;49686;51.880;5.632;2023-01-30T08:51:23;4.30;99.90
63537;DHT22;49686;51.880;5.632;2023-01-30T08:53:50;4.40;99.90
63537;DHT22;49686;51.880;5.632;2023-01-30T08:56:17;4.50;99.90
63537;DHT22;49686;51.880;5.632;2023-01-30T08:58:44;4.60;99.90
63537;DHT22;49686;51.880;5.632;2023-01-30T09:01:13;4.70;99.90
63537;DHT22;49686;51.880;5.632;2023-01-30T09:03:40;4.80;99.90
63537;DHT22;49686;51.880;5.632;2023-01-30T09:06:07;4.90;99.90
63537;DHT22;49686;51.880;5.632;2023-01-30T09:08:34;4.90;99.90
63537;DHT22;49686;51.880;5.632;2023-01-30T09:11:02;4.90;99.90
63537;DHT22;49686;51.880;5.632;2023-01-30T09:13:30;4.90;99.90
63537;DHT22;49686;51.880;5.632;2023-01-30T09:15:57;4.90;99.90
63537;DHT22;49686;51.880;5.632;2023-01-30T09:18:25;4.90;99.90
63537;DHT22;49686;51.880;5.632;2023-01-30T09:21:01;5.00;99.90
63537;DHT22;49686;51.880;5.632;2023-01-30T09:23:28;5.00;99.90
63537;DHT22;49686;51.880;5.632;2023-01-30T09:25:55;5.00;99.90
63537;DHT22;49686;51.880;5.632;2023-01-30T09:28:22;5.00;99.90
63537;DHT22;49686;51.880;5.632;2023-01-30T09:30:49;5.00;99.90
63537;DHT22;49686;51.880;5.632;2023-01-30T09:33:18;5.10;99.90
63537;DHT22;49686;51.880;5.632;2023-01-30T09:35:47;5.10;99.90
63537;DHT22;49686;51.880;5.632;2023-01-30T09:38:14;5.20;99.90
63537;DHT22;49686;51.880;5.632;2023-01-30T09:40:48;5.20;99.90
63537;DHT22;49686;51.880;5.632;2023-01-30T09:43:28;5.30;99.90
63537;DHT22;49686;51.880;5.632;2023-01-30T09:46:07;5.30;99.90
63537;DHT22;49686;51.880;5.632;2023-01-30T09:48:44;5.20;99.90
63537;DHT22;49686;51.880;5.632;2023-01-30T09:51:24;5.30;99.90
63537;DHT22;49686;51.880;5.632;2023-01-30T09:54:03;5.20;99.90
63537;DHT22;49686;51.880;5.632;2023-01-30T09:56:36;5.30;99.90
63537;DHT22;49686;51.880;5.632;2023-01-30T09:59:04;5.40;99.90
63537;DHT22;49686;51.880;5.632;2023-01-30T10:01:36;5.50;99.90
63537;DHT22;49686;51.880;5.632;2023-01-30T10:04:12;5.50;99.90
63537;DHT22;49686;51.880;5.632;2023-01-30T10:06:50;5.40;99.90
63537;DHT22;49686;51.880;5.632;2023-01-30T10:09:28;5.60;99.90
63537;DHT22;49686;51.880;5.632;2023-01-30T10:12:01;5.70;99.90
63537;DHT22;49686;51.880;5.632;2023-01-30T10:14:56;5.60;99.90
63537;DHT22;49686;51.880;5.632;2023-01-30T10:17:34;5.70;99.90
63537;DHT22;49686;51.880;5.632;2023-01-30T10:20:17;5.70;99.90
63537;DHT22;49686;51.880;5.632;2023-01-30T10:22:59;5.80;99.90
63537;DHT22;49686;51.880;5.632;2023-01-30T10:25:32;5.80;99.90
63537;DHT22;49686;51.880;5.632;2023-01-30T10:28:03;5.80;99.90
63537;DHT22;49686;51.880;5.632;2023-01-30T10:30:32;5.70;99.90
63537;DHT22;49686;51.880;5.632;2023-01-30T10:33:02;5.70;99.90
63537;DHT22;49686;51.880;5.632;2023-01-30T10:35:35;5.70;99.90
63537;DHT22;49686;51.880;5.632;2023-01-30T10:38:09;5.60;99.90
63537;DHT22;49686;51.880;5.632;2023-01-30T10:40:41;5.70;99.90
63537;DHT22;49686;51.880;5.632;2023-01-30T10:43:12;5.70;99.90
63537;DHT22;49686;51.880;5.632;2023-01-30T10:45:49;5.70;99.90
63537;DHT22;49686;51.880;5.632;2023-01-30T10:48:39;5.70;99.90
63537;DHT22;49686;51.880;5.632;2023-01-30T10:51:20;5.80;99.90
63537;DHT22;49686;51.880;5.632;2023-01-30T10:53:54;5.80;99.90
63537;DHT22;49686;51.880;5.632;2023-01-30T10:56:29;5.90;99.90
63537;DHT22;49686;51.880;5.632;2023-01-30T10:59:05;6.10;99.90
63537;DHT22;49686;51.880;5.632;2023-01-30T11:01:37;6.00;99.90
63537;DHT22;49686;51.880;5.632;2023-01-30T11:04:14;6.00;99.90
63537;DHT22;49686;51.880;5.632;2023-01-30T11:06:45;6.10;99.90
63537;DHT22;49686;51.880;5.632;2023-01-30T11:09:13;5.90;99.90
63537;DHT22;49686;51.880;5.632;2023-01-30T11:11:47;5.90;99.90
63537;DHT22;49686;51.880;5.632;2023-01-30T11:14:15;5.80;99.90
63537;DHT22;49686;51.880;5.632;2023-01-30T11:16:43;5.90;99.90
63537;DHT22;49686;51.880;5.632;2023-01-30T11:19:12;5.80;99.90
63537;DHT22;49686;51.880;5.632;2023-01-30T11:21:47;5.80;99.90
63537;DHT22;49686;51.880;5.632;2023-01-30T11:24:19;5.90;99.90
63537;DHT22;49686;51.880;5.632;2023-01-30T11:26:46;6.00;99.90
63537;DHT22;49686;51.880;5.632;2023-01-30T11:29:23;6.00;99.90
63537;DHT22;49686;51.880;5.632;2023-01-30T11:31:51;6.10;99.90
63537;DHT22;49686;51.880;5.632;2023-01-30T11:34:20;6.40;99.90
63537;DHT22;49686;51.880;5.632;2023-01-30T11:36:48;6.70;99.90
63537;DHT22;49686;51.880;5.632;2023-01-30T11:39:22;7.00;99.90
63537;DHT22;49686;51.880;5.632;2023-01-30T11:42:01;6.80;99.90
63537;DHT22;49686;51.880;5.632;2023-01-30T11:44:29;6.80;99.90
63537;DHT22;49686;51.880;5.632;2023-01-30T11:46:59;6.80;99.90
63537;DHT22;49686;51.880;5.632;2023-01-30T11:49:32;7.10;99.90
63537;DHT22;49686;51.880;5.632;2023-01-30T11:52:23;6.60;99.90
63537;DHT22;49686;51.880;5.632;2023-01-30T11:54:56;6.30;99.90
63537;DHT22;49686;51.880;5.632;2023-01-30T11:57:24;6.20;99.90
63537;DHT22;49686;51.880;5.632;2023-01-30T11:59:54;6.30;99.90
63537;DHT22;49686;51.880;5.632;2023-01-30T12:02:24;6.30;99.90
63537;DHT22;49686;51.880;5.632;2023-01-30T12:04:55;6.20;99.90
63537;DHT22;49686;51.880;5.632;2023-01-30T12:07:24;6.20;99.90
63537;DHT22;49686;51.880;5.632;2023-01-30T12:09:54;6.30;99.90
63537;DHT22;49686;51.880;5.632;2023-01-30T12:12:30;6.30;99.90
63537;DHT22;49686;51.880;5.632;2023-01-30T12:15:04;6.30;99.90
63537;DHT22;49686;51.880;5.632;2023-01-30T12:17:41;6.30;99.90
63537;DHT22;49686;51.880;5.632;2023-01-30T12:20:15;6.50;99.90
63537;DHT22;49686;51.880;5.632;2023-01-30T12:22:48;6.60;99.90
63537;DHT22;49686;51.880;5.632;2023-01-30T12:25:21;6.60;99.90
63537;DHT22;49686;51.880;5.632;2023-01-30T12:27:55;6.70;99.90
63537;DHT22;49686;51.880;5.632;2023-01-30T12:30:32;6.80;99.90
63537;DHT22;49686;51.880;5.632;2023-01-30T12:33:03;6.70;99.90
63537;DHT22;49686;51.880;5.632;2023-01-30T12:35:34;6.70;99.90
63537;DHT22;49686;51.880;5.632;2023-01-30T12:38:12;6.40;99.90
63537;DHT22;49686;51.880;5.632;2023-01-30T12:40:53;6.20;99.90
63537;DHT22;49686;51.880;5.632;2023-01-30T12:43:33;6.40;99.90
63537;DHT22;49686;51.880;5.632;2023-01-30T12:46:13;6.30;99.90
63537;DHT22;49686;51.880;5.632;2023-01-30T12:49:04;6.30;99.90
63537;DHT22;49686;51.880;5.632;2023-01-30T12:51:57;6.20;99.90
63537;DHT22;49686;51.880;5.632;2023-01-30T12:54:38;6.30;99.90
63537;DHT22;49686;51.880;5.632;2023-01-30T12:57:14;6.20;99.90
63537;DHT22;49686;51.880;5.632;2023-01-30T12:59:52;6.40;99.90
63537;DHT22;49686;51.880;5.632;2023-01-30T13:02:39;6.50;99.90
63537;DHT22;49686;51.880;5.632;2023-01-30T13:05:17;6.30;99.90
63537;DHT22;49686;51.880;5.632;2023-01-30T13:07:58;6.30;99.90
63537;DHT22;49686;51.880;5.632;2023-01-30T13:10:31;6.20;99.90
63537;DHT22;49686;51.880;5.632;2023-01-30T13:13:11;6.20;99.90
63537;DHT22;49686;51.880;5.632;2023-01-30T13:15:45;6.20;99.90
63537;DHT22;49686;51.880;5.632;2023-01-30T13:18:23;6.20;99.90
63537;DHT22;49686;51.880;5.632;2023-01-30T13:20:59;6.30;99.90
63537;DHT22;49686;51.880;5.632;2023-01-30T13:23:34;6.30;99.90
63537;DHT22;49686;51.880;5.632;2023-01-30T13:26:05;6.20;99.90
63537;DHT22;49686;51.880;5.632;2023-01-30T13:28:36;6.10;99.90
63537;DHT22;49686;51.880;5.632;2023-01-30T13:31:05;6.10;99.90
63537;DHT22;49686;51.880;5.632;2023-01-30T13:33:36;6.00;99.90
63537;DHT22;49686;51.880;5.632;2023-01-30T13:36:10;6.00;99.90
63537;DHT22;49686;51.880;5.632;2023-01-30T13:38:40;6.00;99.90
63537;DHT22;49686;51.880;5.632;2023-01-30T13:41:11;6.00;99.90
63537;DHT22;49686;51.880;5.632;2023-01-30T13:43:44;5.90;99.90
63537;DHT22;49686;51.880;5.632;2023-01-30T13:46:17;5.90;99.90
63537;DHT22;49686;51.880;5.632;2023-01-30T13:48:52;5.90;99.90
63537;DHT22;49686;51.880;5.632;2023-01-30T13:51:36;5.90;99.90
63537;DHT22;49686;51.880;5.632;2023-01-30T13:54:18;5.90;99.90
63537;DHT22;49686;51.880;5.632;2023-01-30T13:56:54;5.80;99.90
63537;DHT22;49686;51.880;5.632;2023-01-30T13:59:36;5.80;99.90
63537;DHT22;49686;51.880;5.632;2023-01-30T14:02:17;5.70;99.90
63537;DHT22;49686;51.880;5.632;2023-01-30T14:04:46;5.70;99.90
63537;DHT22;49686;51.880;5.632;2023-01-30T14:07:14;5.70;99.90
63537;DHT22;49686;51.880;5.632;2023-01-30T14:09:44;5.70;99.90
63537;DHT22;49686;51.880;5.632;2023-01-30T14:12:17;5.70;99.90
63537;DHT22;49686;51.880;5.632;2023-01-30T14:14:59;5.80;99.90
63537;DHT22;49686;51.880;5.632;2023-01-30T14:17:27;5.90;99.90
63537;DHT22;49686;51.880;5.632;2023-01-30T14:19:58;5.90;99.90
63537;DHT22;49686;51.880;5.632;2023-01-30T14:22:31;5.90;99.90
63537;DHT22;49686;51.880;5.632;2023-01-30T14:25:34;5.90;99.90
63537;DHT22;49686;51.880;5.632;2023-01-30T14:34:48;6.00;99.90
63537;DHT22;49686;51.880;5.632;2023-01-30T14:37:29;6.00;99.90
63537;DHT22;49686;51.880;5.632;2023-01-30T14:40:34;6.00;99.90
63537;DHT22;49686;51.880;5.632;2023-01-30T14:43:36;5.90;99.90
63537;DHT22;49686;51.880;5.632;2023-01-30T14:46:04;5.90;99.90
63537;DHT22;49686;51.880;5.632;2023-01-30T14:48:39;5.90;99.90
63537;DHT22;49686;51.880;5.632;2023-01-30T14:51:18;5.80;99.90
63537;DHT22;49686;51.880;5.632;2023-01-30T14:53:51;5.80;99.90
63537;DHT22;49686;51.880;5.632;2023-01-30T14:56:35;5.80;99.90
63537;DHT22;49686;51.880;5.632;2023-01-30T14:59:06;5.80;99.90
63537;DHT22;49686;51.880;5.632;2023-01-30T15:01:57;5.80;99.90
63537;DHT22;49686;51.880;5.632;2023-01-30T15:04:26;5.70;99.90
63537;DHT22;49686;51.880;5.632;2023-01-30T15:07:01;5.70;99.90
63537;DHT22;49686;51.880;5.632;2023-01-30T15:09:31;5.60;99.90
63537;DHT22;49686;51.880;5.632;2023-01-30T15:12:15;5.60;99.90
63537;DHT22;49686;51.880;5.632;2023-01-30T15:14:56;5.60;99.90
63537;DHT22;49686;51.880;5.632;2023-01-30T15:17:34;5.50;99.90
63537;DHT22;49686;51.880;5.632;2023-01-30T15:20:23;5.40;99.90
63537;DHT22;49686;51.880;5.632;2023-01-30T15:23:25;5.40;99.90
63537;DHT22;49686;51.880;5.632;2023-01-30T15:26:09;5.40;99.90
63537;DHT22;49686;51.880;5.632;2023-01-30T15:28:46;5.40;99.90
63537;DHT22;49686;51.880;5.632;2023-01-30T15:31:19;5.40;99.90
63537;DHT22;49686;51.880;5.632;2023-01-30T15:33:49;5.40;99.90
63537;DHT22;49686;51.880;5.632;2023-01-30T15:36:23;5.40;99.90
63537;DHT22;49686;51.880;5.632;2023-01-30T15:38:59;5.40;99.90
63537;DHT22;49686;51.880;5.632;2023-01-30T15:41:30;5.40;99.90
63537;DHT22;49686;51.880;5.632;2023-01-30T15:44:28;5.40;99.90
63537;DHT22;49686;51.880;5.632;2023-01-30T15:47:14;5.30;99.90
63537;DHT22;49686;51.880;5.632;2023-01-30T15:49:54;5.40;99.90
63537;DHT22;49686;51.880;5.632;2023-01-30T15:52:25;5.40;99.90
63537;DHT22;49686;51.880;5.632;2023-01-30T15:54:57;5.30;99.90
63537;DHT22;49686;51.880;5.632;2023-01-30T15:57:28;5.40;99.90
63537;DHT22;49686;51.880;5.632;2023-01-30T15:59:57;5.40;99.90
63537;DHT22;49686;51.880;5.632;2023-01-30T16:02:27;5.40;99.90
63537;DHT22;49686;51.880;5.632;2023-01-30T16:05:12;5.40;99.90
63537;DHT22;49686;51.880;5.632;2023-01-30T16:07:39;5.30;99.90
63537;DHT22;49686;51.880;5.632;2023-01-30T16:10:13;5.30;99.90
63537;DHT22;49686;51.880;5.632;2023-01-30T16:12:40;5.30;99.90
63537;DHT22;49686;51.880;5.632;2023-01-30T16:15:15;5.30;99.90
63537;DHT22;49686;51.880;5.632;2023-01-30T16:18:07;5.30;99.90